sensor_id;sensor_type;location;lat;lon;timestamp;pressure;altitude;pressure_sealevel;temperature;humidity
9325;BME280;4701;51.566;6.776;2023-04-25T07:03:39;100926.75;;;5.70;90.99
9325;BME280;4701;51.566;6.776;2023-04-25T07:06:48;100926.91;;;5.75;92.01
9325;BME280;4701;51.566;6.776;2023-04-25T07:09:53;100939.28;;;5.83;92.62
9325;BME280;4701;51.566;6.776;2023-04-25T07:12:55;100937.31;;;5.90;93.04
9325;BME280;4701;51.566;6.776;2023-04-25T07:15:57;100936.41;;;5.96;92.93
9325;BME280;4701;51.566;6.776;2023-04-25T07:19:03;100945.25;;;6.03;92.87
9325;BME280;4701;51.566;6.776;2023-04-25T07:22:05;100943.28;;;6.10;92.65
9325;BME280;4701;51.566;6.776;2023-04-25T07:25:09;100950.22;;;6.18;92.15
9325;BME280;4701;51.566;6.776;2023-04-25T07:28:11;100949.88;;;6.26;91.98
9325;BME280;4701;51.566;6.776;2023-04-25T07:31:13;100948.94;;;6.32;91.88
9325;BME280;4701;51.566;6.776;2023-04-25T07:34:18;100952.38;;;6.39;91.18
9325;BME280;4701;51.566;6.776;2023-04-25T07:37:20;100952.28;;;6.45;90.66
9325;BME280;4701;51.566;6.776;2023-04-25T07:40:51;100957.34;;;6.54;90.62
9325;BME280;4701;51.566;6.776;2023-04-25T07:43:53;100955.56;;;6.59;89.87
9325;BME280;4701;51.566;6.776;2023-04-25T07:46:55;100960.84;;;6.66;89.15
9325;BME280;4701;51.566;6.776;2023-04-25T07:49:59;100962.88;;;6.70;88.96
9325;BME280;4701;51.566;6.776;2023-04-25T07:53:01;100965.47;;;6.77;88.71
9325;BME280;4701;51.566;6.776;2023-04-25T07:56:10;100978.06;;;6.83;87.21
9325;BME280;4701;51.566;6.776;2023-04-25T07:59:14;100973.81;;;6.87;86.64
9325;BME280;4701;51.566;6.776;2023-04-25T08:02:17;100979.94;;;6.94;85.23
9325;BME280;4701;51.566;6.776;2023-04-25T08:05:20;100986.53;;;6.98;84.06
9325;BME280;4701;51.566;6.776;2023-04-25T08:08:28;100989.59;;;7.02;83.42
9325;BME280;4701;51.566;6.776;2023-04-25T08:11:30;100996.22;;;7.06;83.08
9325;BME280;4701;51.566;6.776;2023-04-25T08:14:32;100994.66;;;7.10;82.90
9325;BME280;4701;51.566;6.776;2023-04-25T08:17:37;100998.28;;;7.15;82.25
9325;BME280;4701;51.566;6.776;2023-04-25T08:20:41;101004.66;;;7.21;81.91
9325;BME280;4701;51.566;6.776;2023-04-25T08:23:45;101022.91;;;7.26;81.48
9325;BME280;4701;51.566;6.776;2023-04-25T08:26:58;101017.03;;;7.29;80.70
9325;BME280;4701;51.566;6.776;2023-04-25T08:30:03;101020.06;;;7.32;79.99
9325;BME280;4701;51.566;6.776;2023-04-25T08:33:06;101017.72;;;7.36;79.71
9325;BME280;4701;51.566;6.776;2023-04-25T08:36:29;101020.78;;;7.39;79.46
9325;BME280;4701;51.566;6.776;2023-04-25T08:39:33;101030.91;;;7.44;79.06
9325;BME280;4701;51.566;6.776;2023-04-25T08:42:54;101032.09;;;7.48;78.32
9325;BME280;4701;51.566;6.776;2023-04-25T08:45:59;101033.47;;;7.50;78.33
9325;BME280;4701;51.566;6.776;2023-04-25T08:49:11;101035.72;;;7.53;78.43
9325;BME280;4701;51.566;6.776;2023-04-25T08:52:21;101043.13;;;7.58;77.94
9325;BME280;4701;51.566;6.776;2023-04-25T08:55:24;101047.84;;;7.63;77.50
9325;BME280;4701;51.566;6.776;2023-04-25T08:58:31;101049.84;;;7.67;77.86
9325;BME280;4701;51.566;6.776;2023-04-25T09:01:33;101051.03;;;7.71;74.79
9325;BME280;4701;51.566;6.776;2023-04-25T09:04:36;101061.38;;;7.74;75.21
9325;BME280;4701;51.566;6.776;2023-04-25T09:07:39;101060.06;;;7.77;75.02
9325;BME280;4701;51.566;6.776;2023-04-25T09:10:41;101059.38;;;7.81;74.92
9325;BME280;4701;51.566;6.776;2023-04-25T09:13:43;101070.56;;;7.85;74.65
9325;BME280;4701;51.566;6.776;2023-04-25T09:17:09;101074.22;;;7.90;74.17
9325;BME280;4701;51.566;6.776;2023-04-25T09:20:14;101069.94;;;7.94;73.93
9325;BME280;4701;51.566;6.776;2023-04-25T09:23:18;101078.16;;;7.99;73.25
9325;BME280;4701;51.566;6.776;2023-04-25T09:26:21;101082.28;;;8.02;73.17
9325;BME280;4701;51.566;6.776;2023-04-25T09:29:29;101081.00;;;8.05;72.58
9325;BME280;4701;51.566;6.776;2023-04-25T09:32:31;101080.53;;;8.08;72.19
9325;BME280;4701;51.566;6.776;2023-04-25T09:35:38;101081.91;;;8.10;72.10
9325;BME280;4701;51.566;6.776;2023-04-25T09:38:45;101079.31;;;8.15;71.10
9325;BME280;4701;51.566;6.776;2023-04-25T09:41:53;101087.78;;;8.19;70.92
9325;BME280;4701;51.566;6.776;2023-04-25T09:44:56;101087.31;;;8.22;70.39
9325;BME280;4701;51.566;6.776;2023-04-25T09:48:03;101093.06;;;8.25;70.36
9325;BME280;4701;51.566;6.776;2023-04-25T09:51:09;101099.91;;;8.28;70.55
9325;BME280;4701;51.566;6.776;2023-04-25T09:54:13;101099.47;;;8.31;70.51
9325;BME280;4701;51.566;6.776;2023-04-25T09:57:20;101097.06;;;8.34;70.33
9325;BME280;4701;51.566;6.776;2023-04-25T10:00:23;101102.03;;;8.38;70.75
9325;BME280;4701;51.566;6.776;2023-04-25T10:03:26;101105.91;;;8.42;70.88
9325;BME280;4701;51.566;6.776;2023-04-25T10:06:50;101108.94;;;8.45;70.45
9325;BME280;4701;51.566;6.776;2023-04-25T10:09:58;101107.41;;;8.49;70.61
9325;BME280;4701;51.566;6.776;2023-04-25T10:13:04;101128.41;;;8.54;68.63
9325;BME280;4701;51.566;6.776;2023-04-25T10:16:06;101128.41;;;8.54;67.87
9325;BME280;4701;51.566;6.776;2023-04-25T10:19:09;101133.59;;;8.55;65.34
9325;BME280;4701;51.566;6.776;2023-04-25T10:22:14;101148.25;;;8.54;66.94
9325;BME280;4701;51.566;6.776;2023-04-25T10:25:19;101153.09;;;8.52;66.97
9325;BME280;4701;51.566;6.776;2023-04-25T10:28:21;101161.84;;;8.54;66.69
9325;BME280;4701;51.566;6.776;2023-04-25T10:31:23;101162.56;;;8.50;67.50
9325;BME280;4701;51.566;6.776;2023-04-25T10:34:38;101158.31;;;8.42;68.20
9325;BME280;4701;51.566;6.776;2023-04-25T10:38:13;101176.94;;;8.33;68.74
9325;BME280;4701;51.566;6.776;2023-04-25T10:41:18;101175.63;;;8.24;69.80
9325;BME280;4701;51.566;6.776;2023-04-25T10:44:20;101172.19;;;8.17;71.09
9325;BME280;4701;51.566;6.776;2023-04-25T10:47:34;101170.22;;;8.13;71.31
9325;BME280;4701;51.566;6.776;2023-04-25T10:50:37;101161.72;;;8.09;72.10
9325;BME280;4701;51.566;6.776;2023-04-25T10:53:39;101170.13;;;8.08;73.08
9325;BME280;4701;51.566;6.776;2023-04-25T10:56:42;101167.41;;;8.08;73.20
9325;BME280;4701;51.566;6.776;2023-04-25T10:59:45;101164.41;;;8.09;73.73
9325;BME280;4701;51.566;6.776;2023-04-25T11:02:48;101155.22;;;8.10;74.04
9325;BME280;4701;51.566;6.776;2023-04-25T11:05:52;101154.75;;;8.13;73.96
9325;BME280;4701;51.566;6.776;2023-04-25T11:08:54;101156.16;;;8.16;73.25
9325;BME280;4701;51.566;6.776;2023-04-25T11:11:59;101160.03;;;8.20;73.10
9325;BME280;4701;51.566;6.776;2023-04-25T11:15:02;101162.03;;;8.24;72.17
9325;BME280;4701;51.566;6.776;2023-04-25T11:18:04;101163.44;;;8.27;71.31
9325;BME280;4701;51.566;6.776;2023-04-25T11:21:06;101164.41;;;8.32;69.27
9325;BME280;4701;51.566;6.776;2023-04-25T11:24:08;101155.75;;;8.35;69.13
9325;BME280;4701;51.566;6.776;2023-04-25T11:27:12;101153.97;;;8.41;68.69
9325;BME280;4701;51.566;6.776;2023-04-25T11:30:14;101147.81;;;8.46;69.59
9325;BME280;4701;51.566;6.776;2023-04-25T11:33:17;101154.75;;;8.53;69.17
9325;BME280;4701;51.566;6.776;2023-04-25T11:36:18;101156.47;;;8.59;68.84
9325;BME280;4701;51.566;6.776;2023-04-25T11:39:20;101154.94;;;8.63;69.35
9325;BME280;4701;51.566;6.776;2023-04-25T11:42:24;101152.31;;;8.68;68.78
9325;BME280;4701;51.566;6.776;2023-04-25T11:45:26;101159.75;;;8.73;68.68
9325;BME280;4701;51.566;6.776;2023-04-25T11:48:36;101159.00;;;8.78;68.33
9325;BME280;4701;51.566;6.776;2023-04-25T11:51:39;101156.88;;;8.80;68.13
9325;BME280;4701;51.566;6.776;2023-04-25T11:54:41;101151.78;;;8.83;67.86
9325;BME280;4701;51.566;6.776;2023-04-25T11:57:47;101160.47;;;8.85;67.42
9325;BME280;4701;51.566;6.776;2023-04-25T12:00:50;101151.63;;;8.90;67.65
9325;BME280;4701;51.566;6.776;2023-04-25T12:03:52;101162.81;;;8.93;66.86
9325;BME280;4701;51.566;6.776;2023-04-25T12:06:54;101170.00;;;8.99;66.95
9325;BME280;4701;51.566;6.776;2023-04-25T12:09:56;101157.31;;;9.05;66.26
9325;BME280;4701;51.566;6.776;2023-04-25T12:12:59;101160.69;;;9.12;65.73
9325;BME280;4701;51.566;6.776;2023-04-25T12:16:01;101160.84;;;9.22;65.23
9325;BME280;4701;51.566;6.776;2023-04-25T12:19:03;101166.47;;;9.32;64.52
9325;BME280;4701;51.566;6.776;2023-04-25T12:22:19;101160.41;;;9.47;64.41
9325;BME280;4701;51.566;6.776;2023-04-25T12:25:37;101164.19;;;9.63;64.42
9325;BME280;4701;51.566;6.776;2023-04-25T12:28:45;101167.22;;;9.83;63.61
9325;BME280;4701;51.566;6.776;2023-04-25T12:31:49;101164.38;;;9.95;63.14
9325;BME280;4701;51.566;6.776;2023-04-25T12:34:51;101174.84;;;10.03;63.87
9325;BME280;4701;51.566;6.776;2023-04-25T12:37:53;101188.25;;;10.09;65.00
9325;BME280;4701;51.566;6.776;2023-04-25T12:40:56;101204.34;;;10.11;64.37
9325;BME280;4701;51.566;6.776;2023-04-25T12:43:59;101212.53;;;10.11;63.84
9325;BME280;4701;51.566;6.776;2023-04-25T12:47:01;101213.84;;;10.08;65.05
9325;BME280;4701;51.566;6.776;2023-04-25T12:50:03;101215.94;;;10.01;64.71
9325;BME280;4701;51.566;6.776;2023-04-25T12:53:06;101214.47;;;9.94;65.49
9325;BME280;4701;51.566;6.776;2023-04-25T12:56:08;101200.22;;;9.86;66.10
9325;BME280;4701;51.566;6.776;2023-04-25T12:59:11;101207.47;;;9.81;67.20
9325;BME280;4701;51.566;6.776;2023-04-25T13:02:12;101206.34;;;9.77;67.91
9325;BME280;4701;51.566;6.776;2023-04-25T13:05:14;101194.63;;;9.76;68.10
9325;BME280;4701;51.566;6.776;2023-04-25T13:08:16;101193.03;;;9.80;68.33
9325;BME280;4701;51.566;6.776;2023-04-25T13:11:18;101199.94;;;9.88;68.33
9325;BME280;4701;51.566;6.776;2023-04-25T13:14:21;101191.66;;;10.00;68.62
9325;BME280;4701;51.566;6.776;2023-04-25T13:17:23;101195.13;;;10.12;68.34
9325;BME280;4701;51.566;6.776;2023-04-25T13:20:25;101200.00;;;10.32;66.93
9325;BME280;4701;51.566;6.776;2023-04-25T13:23:28;101197.41;;;10.42;65.37
9325;BME280;4701;51.566;6.776;2023-04-25T13:26:30;101202.22;;;10.56;65.36
9325;BME280;4701;51.566;6.776;2023-04-25T13:29:33;101187.88;;;10.66;65.01
9325;BME280;4701;51.566;6.776;2023-04-25T13:32:36;101189.69;;;10.82;65.15
9325;BME280;4701;51.566;6.776;2023-04-25T13:35:38;101186.81;;;10.94;62.24
9325;BME280;4701;51.566;6.776;2023-04-25T13:38:40;101184.13;;;10.99;60.46
9325;BME280;4701;51.566;6.776;2023-04-25T13:41:44;101187.75;;;11.10;58.86
9325;BME280;4701;51.566;6.776;2023-04-25T13:44:47;101180.75;;;11.19;58.08
9325;BME280;4701;51.566;6.776;2023-04-25T13:47:49;101189.28;;;11.27;57.31
9325;BME280;4701;51.566;6.776;2023-04-25T13:50:51;101176.81;;;11.36;54.87
9325;BME280;4701;51.566;6.776;2023-04-25T13:53:53;101176.31;;;11.45;55.08
9325;BME280;4701;51.566;6.776;2023-04-25T13:56:54;101182.69;;;11.55;53.01
9325;BME280;4701;51.566;6.776;2023-04-25T14:00:00;101186.25;;;11.61;54.29
9325;BME280;4701;51.566;6.776;2023-04-25T14:03:07;101185.50;;;11.70;53.82
9325;BME280;4701;51.566;6.776;2023-04-25T14:06:11;101182.56;;;11.77;54.10
9325;BME280;4701;51.566;6.776;2023-04-25T14:09:14;101182.06;;;11.85;54.72
9325;BME280;4701;51.566;6.776;2023-04-25T14:12:15;101180.22;;;11.91;55.30
9325;BME280;4701;51.566;6.776;2023-04-25T14:15:19;101191.97;;;11.96;55.30
9325;BME280;4701;51.566;6.776;2023-04-25T14:18:21;101198.84;;;12.04;52.25
9325;BME280;4701;51.566;6.776;2023-04-25T14:21:23;101199.41;;;12.06;51.70
9325;BME280;4701;51.566;6.776;2023-04-25T14:24:25;101200.19;;;11.96;52.52
9325;BME280;4701;51.566;6.776;2023-04-25T14:27:27;101205.84;;;11.85;54.35
9325;BME280;4701;51.566;6.776;2023-04-25T14:30:30;101214.47;;;11.71;55.42
9325;BME280;4701;51.566;6.776;2023-04-25T14:33:32;101213.06;;;11.64;55.65
9325;BME280;4701;51.566;6.776;2023-04-25T14:36:35;101214.88;;;11.53;56.03
9325;BME280;4701;51.566;6.776;2023-04-25T14:39:37;101225.19;;;11.46;56.32
9325;BME280;4701;51.566;6.776;2023-04-25T14:42:39;101219.41;;;11.37;57.09
9325;BME280;4701;51.566;6.776;2023-04-25T14:45:42;101218.25;;;11.33;57.00
9325;BME280;4701;51.566;6.776;2023-04-25T14:48:45;101228.59;;;11.31;56.79
9325;BME280;4701;51.566;6.776;2023-04-25T14:51:47;101221.22;;;11.32;56.43
9325;BME280;4701;51.566;6.776;2023-04-25T14:54:50;101219.63;;;11.31;57.04
9325;BME280;4701;51.566;6.776;2023-04-25T14:57:53;101215.78;;;11.32;56.52
9325;BME280;4701;51.566;6.776;2023-04-25T15:00:57;101220.16;;;11.33;55.92
9325;BME280;4701;51.566;6.776;2023-04-25T15:03:58;101210.06;;;11.33;56.25
9325;BME280;4701;51.566;6.776;2023-04-25T15:07:00;101215.28;;;11.35;56.03
9325;BME280;4701;51.566;6.776;2023-04-25T15:10:04;101219.13;;;11.39;55.87
9325;BME280;4701;51.566;6.776;2023-04-25T15:13:06;101218.09;;;11.45;56.42
9325;BME280;4701;51.566;6.776;2023-04-25T15:16:09;101229.84;;;11.51;54.87
9325;BME280;4701;51.566;6.776;2023-04-25T15:19:11;101229.09;;;11.55;52.94
9325;BME280;4701;51.566;6.776;2023-04-25T15:22:13;101218.19;;;11.60;52.96
9325;BME280;4701;51.566;6.776;2023-04-25T15:25:16;101213.88;;;11.64;50.18
9325;BME280;4701;51.566;6.776;2023-04-25T15:28:18;101220.69;;;11.62;51.40
9325;BME280;4701;51.566;6.776;2023-04-25T15:31:23;101221.19;;;11.59;51.68
9325;BME280;4701;51.566;6.776;2023-04-25T15:34:25;101230.47;;;11.58;51.89
9325;BME280;4701;51.566;6.776;2023-04-25T15:37:26;101235.63;;;11.54;50.61
9325;BME280;4701;51.566;6.776;2023-04-25T15:40:28;101245.41;;;11.50;49.62
9325;BME280;4701;51.566;6.776;2023-04-25T15:43:30;101236.88;;;11.42;50.00
9325;BME280;4701;51.566;6.776;2023-04-25T15:46:33;101241.44;;;11.31;50.12
9325;BME280;4701;51.566;6.776;2023-04-25T15:49:35;101247.34;;;11.23;50.68
9325;BME280;4701;51.566;6.776;2023-04-25T15:52:37;101241.56;;;11.14;49.15
9325;BME280;4701;51.566;6.776;2023-04-25T15:55:39;101249.94;;;11.08;49.29
9325;BME280;4701;51.566;6.776;2023-04-25T15:58:41;101249.06;;;11.02;49.67
9325;BME280;4701;51.566;6.776;2023-04-25T16:01:44;101242.47;;;10.98;51.28
9325;BME280;4701;51.566;6.776;2023-04-25T16:04:46;101242.75;;;10.96;52.46
9325;BME280;4701;51.566;6.776;2023-04-25T16:07:49;101247.38;;;10.96;53.13
9325;BME280;4701;51.566;6.776;2023-04-25T16:10:53;101256.38;;;10.96;53.77
9325;BME280;4701;51.566;6.776;2023-04-25T16:13:55;101252.56;;;10.97;52.38
9325;BME280;4701;51.566;6.776;2023-04-25T16:16:58;101259.63;;;10.93;52.51
9325;BME280;4701;51.566;6.776;2023-04-25T16:20:00;101259.56;;;10.88;53.19
9325;BME280;4701;51.566;6.776;2023-04-25T16:23:06;101260.81;;;10.81;52.76
9325;BME280;4701;51.566;6.776;2023-04-25T16:26:07;101258.31;;;10.74;52.93
9325;BME280;4701;51.566;6.776;2023-04-25T16:29:10;101262.31;;;10.67;53.70
9325;BME280;4701;51.566;6.776;2023-04-25T16:32:15;101265.22;;;10.60;53.89
9325;BME280;4701;51.566;6.776;2023-04-25T16:35:17;101263.25;;;10.55;54.22
9325;BME280;4701;51.566;6.776;2023-04-25T16:38:19;101264.03;;;10.51;54.46
9325;BME280;4701;51.566;6.776;2023-04-25T16:41:21;101263.69;;;10.47;55.08
9325;BME280;4701;51.566;6.776;2023-04-25T16:44:24;101259.66;;;10.50;52.95
9325;BME280;4701;51.566;6.776;2023-04-25T16:47:27;101255.53;;;10.47;52.95
9325;BME280;4701;51.566;6.776;2023-04-25T16:50:29;101262.25;;;10.40;53.91
9325;BME280;4701;51.566;6.776;2023-04-25T16:53:31;101265.16;;;10.33;54.36
9325;BME280;4701;51.566;6.776;2023-04-25T16:56:33;101267.81;;;10.28;54.53
9325;BME280;4701;51.566;6.776;2023-04-25T16:59:35;101264.19;;;10.22;54.94
9325;BME280;4701;51.566;6.776;2023-04-25T17:02:38;101267.44;;;10.19;54.48
9325;BME280;4701;51.566;6.776;2023-04-25T17:05:40;101271.69;;;10.15;54.60
9325;BME280;4701;51.566;6.776;2023-04-25T17:08:41;101274.09;;;10.12;54.95
9325;BME280;4701;51.566;6.776;2023-04-25T17:11:43;101282.78;;;10.09;54.81
9325;BME280;4701;51.566;6.776;2023-04-25T17:14:45;101280.53;;;10.06;55.30
9325;BME280;4701;51.566;6.776;2023-04-25T17:17:49;101286.22;;;10.04;55.51
9325;BME280;4701;51.566;6.776;2023-04-25T17:20:51;101286.22;;;10.04;56.11
9325;BME280;4701;51.566;6.776;2023-04-25T17:23:53;101289.53;;;10.06;56.34
9325;BME280;4701;51.566;6.776;2023-04-25T17:26:54;101299.09;;;10.09;55.37
9325;BME280;4701;51.566;6.776;2023-04-25T17:29:56;101290.19;;;10.13;54.39
9325;BME280;4701;51.566;6.776;2023-04-25T17:33:00;101298.69;;;10.17;54.11
9325;BME280;4701;51.566;6.776;2023-04-25T17:36:03;101308.75;;;10.16;55.19
9325;BME280;4701;51.566;6.776;2023-04-25T17:39:04;101308.53;;;10.18;55.04
9325;BME280;4701;51.566;6.776;2023-04-25T17:42:08;101304.38;;;10.15;55.97
9325;BME280;4701;51.566;6.776;2023-04-25T17:45:10;101311.13;;;10.13;55.76
9325;BME280;4701;51.566;6.776;2023-04-25T17:48:14;101323.38;;;10.10;55.70
9325;BME280;4701;51.566;6.776;2023-04-25T17:51:16;101327.41;;;10.08;55.14
9325;BME280;4701;51.566;6.776;2023-04-25T17:54:18;101316.19;;;10.04;56.13
9325;BME280;4701;51.566;6.776;2023-04-25T17:57:21;101317.78;;;10.00;55.98
9325;BME280;4701;51.566;6.776;2023-04-25T18:00:24;101326.66;;;9.96;55.85
9325;BME280;4701;51.566;6.776;2023-04-25T18:03:27;101331.22;;;9.90;56.56
9325;BME280;4701;51.566;6.776;2023-04-25T18:06:29;101329.50;;;9.84;57.20
9325;BME280;4701;51.566;6.776;2023-04-25T18:09:32;101331.28;;;9.78;57.43
9325;BME280;4701;51.566;6.776;2023-04-25T18:12:34;101336.66;;;9.73;57.62
9325;BME280;4701;51.566;6.776;2023-04-25T18:15:36;101343.41;;;9.71;57.10
9325;BME280;4701;51.566;6.776;2023-04-25T18:18:39;101343.34;;;9.66;56.75
9325;BME280;4701;51.566;6.776;2023-04-25T18:21:43;101353.06;;;9.62;56.39
9325;BME280;4701;51.566;6.776;2023-04-25T18:24:45;101354.88;;;9.56;56.71
9325;BME280;4701;51.566;6.776;2023-04-25T18:27:47;101362.97;;;9.51;56.46
9325;BME280;4701;51.566;6.776;2023-04-25T18:30:49;101365.00;;;9.44;57.38
9325;BME280;4701;51.566;6.776;2023-04-25T18:33:53;101366.53;;;9.40;57.96
9325;BME280;4701;51.566;6.776;2023-04-25T18:36:54;101374.63;;;9.35;57.91
9325;BME280;4701;51.566;6.776;2023-04-25T18:39:57;101376.41;;;9.29;59.03
9325;BME280;4701;51.566;6.776;2023-04-25T18:42:59;101378.22;;;9.24;59.23
9325;BME280;4701;51.566;6.776;2023-04-25T18:46:00;101388.97;;;9.19;57.79
9325;BME280;4701;51.566;6.776;2023-04-25T18:49:04;101394.09;;;9.15;58.88
9325;BME280;4701;51.566;6.776;2023-04-25T18:52:05;101392.34;;;9.09;58.65
9325;BME280;4701;51.566;6.776;2023-04-25T18:55:10;101398.25;;;9.06;59.68
9325;BME280;4701;51.566;6.776;2023-04-25T18:58:11;101401.69;;;9.01;59.18
9325;BME280;4701;51.566;6.776;2023-04-25T19:01:13;101412.44;;;8.96;59.21
9325;BME280;4701;51.566;6.776;2023-04-25T19:04:16;101417.56;;;8.93;59.70
9325;BME280;4701;51.566;6.776;2023-04-25T19:07:18;101419.31;;;8.87;59.93
9325;BME280;4701;51.566;6.776;2023-04-25T19:10:21;101425.72;;;8.81;59.15
9325;BME280;4701;51.566;6.776;2023-04-25T19:13:23;101423.69;;;8.77;59.78
9325;BME280;4701;51.566;6.776;2023-04-25T19:16:25;101429.63;;;8.73;59.00
9325;BME280;4701;51.566;6.776;2023-04-25T19:19:28;101433.88;;;8.69;59.23
9325;BME280;4701;51.566;6.776;2023-04-25T19:22:30;101450.69;;;8.66;59.62
9325;BME280;4701;51.566;6.776;2023-04-25T19:25:32;101443.22;;;8.62;59.80
9325;BME280;4701;51.566;6.776;2023-04-25T19:28:34;101439.56;;;8.56;59.56
9325;BME280;4701;51.566;6.776;2023-04-25T19:31:37;101444.63;;;8.53;59.45
9325;BME280;4701;51.566;6.776;2023-04-25T19:34:41;101449.47;;;8.51;60.00
9325;BME280;4701;51.566;6.776;2023-04-25T19:37:42;101451.25;;;8.45;60.19
9325;BME280;4701;51.566;6.776;2023-04-25T19:40:46;101450.91;;;8.42;59.81
9325;BME280;4701;51.566;6.776;2023-04-25T19:43:48;101446.16;;;8.37;59.77
9325;BME280;4701;51.566;6.776;2023-04-25T19:46:50;101447.72;;;8.33;60.11
9325;BME280;4701;51.566;6.776;2023-04-25T19:49:53;101449.19;;;8.29;60.06
9325;BME280;4701;51.566;6.776;2023-04-25T19:52:55;101447.19;;;8.24;60.40
9325;BME280;4701;51.566;6.776;2023-04-25T19:55:57;101453.09;;;8.21;60.47
9325;BME280;4701;51.566;6.776;2023-04-25T19:58:58;101447.53;;;8.16;60.59
9325;BME280;4701;51.566;6.776;2023-04-25T20:02:00;101456.13;;;8.13;61.41
9325;BME280;4701;51.566;6.776;2023-04-25T20:05:06;101447.84;;;8.08;62.20
9325;BME280;4701;51.566;6.776;2023-04-25T20:08:08;101463.78;;;8.05;62.52
9325;BME280;4701;51.566;6.776;2023-04-25T20:11:10;101454.44;;;8.01;62.57
9325;BME280;4701;51.566;6.776;2023-04-25T20:14:12;101454.09;;;7.97;63.19
9325;BME280;4701;51.566;6.776;2023-04-25T20:17:14;101466.47;;;7.93;63.23
9325;BME280;4701;51.566;6.776;2023-04-25T20:20:17;101459.84;;;7.89;63.63
9325;BME280;4701;51.566;6.776;2023-04-25T20:23:20;101466.78;;;7.85;63.41
9325;BME280;4701;51.566;6.776;2023-04-25T20:26:21;101478.34;;;7.80;63.99
9325;BME280;4701;51.566;6.776;2023-04-25T20:29:24;101470.06;;;7.75;64.03
9325;BME280;4701;51.566;6.776;2023-04-25T20:32:26;101464.50;;;7.70;64.33
9325;BME280;4701;51.566;6.776;2023-04-25T20:35:30;101466.25;;;7.65;64.89
9325;BME280;4701;51.566;6.776;2023-04-25T20:38:32;101466.09;;;7.59;65.14
9325;BME280;4701;51.566;6.776;2023-04-25T20:41:34;101471.19;;;7.56;65.40
9325;BME280;4701;51.566;6.776;2023-04-25T20:44:36;101473.72;;;7.51;65.78
9325;BME280;4701;51.566;6.776;2023-04-25T20:47:40;101474.22;;;7.48;65.61
9325;BME280;4701;51.566;6.776;2023-04-25T20:50:43;101473.00;;;7.44;65.36
9325;BME280;4701;51.566;6.776;2023-04-25T20:53:45;101468.50;;;7.38;66.15
9325;BME280;4701;51.566;6.776;2023-04-25T20:56:47;101472.47;;;7.35;65.99
9325;BME280;4701;51.566;6.776;2023-04-25T20:59:49;101470.47;;;7.31;66.24
